地図

経路データ

SID SEASON NUMBER BASIN SUBBASIN NAME ISO_TIME NATURE LAT LON WMO_WIND WMO_PRES WMO_AGENCY TRACK_TYPE DIST2LAND LANDFALL IFLAG USA_AGENCY USA_ATCF_ID USA_LAT USA_LON USA_RECORD USA_STATUS USA_WIND USA_PRES USA_SSHS USA_R34_NE USA_R34_SE USA_R34_SW USA_R34_NW USA_R50_NE USA_R50_SE USA_R50_SW USA_R50_NW USA_R64_NE USA_R64_SE USA_R64_SW USA_R64_NW USA_POCI USA_ROCI USA_RMW USA_EYE TOKYO_LAT TOKYO_LON TOKYO_GRADE TOKYO_WIND TOKYO_PRES TOKYO_R50_DIR TOKYO_R50_LONG TOKYO_R50_SHORT TOKYO_R30_DIR TOKYO_R30_LONG TOKYO_R30_SHORT TOKYO_LAND CMA_LAT CMA_LON CMA_CAT CMA_WIND CMA_PRES HKO_LAT HKO_LON HKO_CAT HKO_WIND HKO_PRES NEWDELHI_LAT NEWDELHI_LON NEWDELHI_GRADE NEWDELHI_WIND NEWDELHI_PRES NEWDELHI_CI NEWDELHI_DP NEWDELHI_POCI REUNION_LAT REUNION_LON REUNION_TYPE REUNION_WIND REUNION_PRES REUNION_TNUM REUNION_CI REUNION_RMW REUNION_R34_NE REUNION_R34_SE REUNION_R34_SW REUNION_R34_NW REUNION_R50_NE REUNION_R50_SE REUNION_R50_SW REUNION_R50_NW REUNION_R64_NE REUNION_R64_SE REUNION_R64_SW REUNION_R64_NW BOM_LAT BOM_LON BOM_TYPE BOM_WIND BOM_PRES BOM_TNUM BOM_CI BOM_RMW BOM_R34_NE BOM_R34_SE BOM_R34_SW BOM_R34_NW BOM_R50_NE BOM_R50_SE BOM_R50_SW BOM_R50_NW BOM_R64_NE BOM_R64_SE BOM_R64_SW BOM_R64_NW BOM_ROCI BOM_POCI BOM_EYE BOM_POS_METHOD BOM_PRES_METHOD NADI_LAT NADI_LON NADI_CAT NADI_WIND NADI_PRES WELLINGTON_LAT WELLINGTON_LON WELLINGTON_WIND WELLINGTON_PRES DS824_LAT DS824_LON DS824_STAGE DS824_WIND DS824_PRES TD9636_LAT TD9636_LON TD9636_STAGE TD9636_WIND TD9636_PRES TD9635_LAT TD9635_LON TD9635_WIND TD9635_PRES TD9635_ROCI NEUMANN_LAT NEUMANN_LON NEUMANN_CLASS NEUMANN_WIND NEUMANN_PRES MLC_LAT MLC_LON MLC_CLASS MLC_WIND MLC_PRES USA_GUST BOM_GUST BOM_GUST_PER REUNION_GUST REUNION_GUST_PER USA_SEAHGT USA_SEARAD_NE USA_SEARAD_SE USA_SEARAD_SW USA_SEARAD_NW STORM_SPEED STORM_DIR
1905143N17129 1905 19 WP MM NOT_NAMED 1905-05-22 16:00:00 NR 16.5000 128.600 main 536 521 __________O___ -1 16.5000 128.600 7 14 313
1905143N17129 1905 19 WP MM NOT_NAMED 1905-05-22 18:00:00 NR 16.8227 128.235 main 521 518 __________P___ -1 16.8227 128.235 7 14 313
1905143N17129 1905 19 WP MM NOT_NAMED 1905-05-22 21:00:00 NR 17.2976 127.699 main 518 505 __________P___ -1 17.2976 127.699 7 14 313
1905143N17129 1905 19 WP MM NOT_NAMED 1905-05-23 00:00:00 NR 17.7507 127.193 main 506 464 __________P___ -1 17.7507 127.193 7 13 314
1905143N17129 1905 19 WP MM NOT_NAMED 1905-05-23 03:00:00 NR 18.1699 126.737 main 464 454 __________P___ -1 18.1699 126.737 7 12 314
1905143N17129 1905 19 WP MM NOT_NAMED 1905-05-23 04:00:00 NR 18.3000 126.600 main 454 432 __________O___ -1 18.3000 126.600 7 11 316
1905143N17129 1905 19 WP MM NOT_NAMED 1905-05-23 06:00:00 NR 18.5451 126.351 main 432 393 __________P___ -1 18.5451 126.351 7 10 317
1905143N17129 1905 19 WP MM NOT_NAMED 1905-05-23 09:00:00 NR 18.8879 126.028 main 393 368 __________P___ -1 18.8879 126.028 7 9 320
1905143N17129 1905 19 WP MM NOT_NAMED 1905-05-23 12:00:00 NR 19.2228 125.747 main 368 358 __________P___ -1 19.2228 125.747 7 9 323
1905143N17129 1905 19 WP MM NOT_NAMED 1905-05-23 15:00:00 NR 19.5747 125.486 main 362 352 __________P___ -1 19.5747 125.486 7 9 326
1905143N17129 1905 19 WP MM NOT_NAMED 1905-05-23 16:00:00 NR 19.7000 125.400 main 356 347 __________O___ -1 19.7000 125.400 7 10 328
1905143N17129 1905 19 WP MM NOT_NAMED 1905-05-23 18:00:00 NR 19.9902 125.203 main 353 347 __________P___ -1 19.9902 125.203 7 11 329
1905143N17129 1905 19 WP MM NOT_NAMED 1905-05-23 21:00:00 NR 20.4511 124.914 main 359 359 __________P___ -1 20.4511 124.914 7 11 330
1905143N17129 1905 19 WP MM NOT_NAMED 1905-05-24 00:00:00 NR 20.9177 124.638 main 369 362 __________P___ -1 20.9177 124.638 7 10 331
1905143N17129 1905 19 WP MM NOT_NAMED 1905-05-24 03:00:00 NR 21.3618 124.380 main 362 347 __________P___ -1 21.3618 124.380 7 10 332
1905143N17129 1905 19 WP MM NOT_NAMED 1905-05-24 04:00:00 NR 21.5000 124.300 main 347 318 __________O___ -1 21.5000 124.300 7 9 329
1905143N17129 1905 19 WP MM NOT_NAMED 1905-05-24 06:00:00 NR 21.7373 124.136 main 318 279 __________P___ -1 21.7373 124.136 7 8 327
1905143N17129 1905 19 WP MM NOT_NAMED 1905-05-24 09:00:00 NR 22.0615 123.909 main 279 248 __________P___ -1 22.0615 123.909 7 7 328
1905143N17129 1905 19 WP MM NOT_NAMED 1905-05-24 12:00:00 NR 22.3701 123.710 main 248 219 __________P___ -1 22.3701 123.710 7 7 332
1905143N17129 1905 19 WP MM NOT_NAMED 1905-05-24 15:00:00 NR 22.6877 123.546 main 219 217 __________P___ -1 22.6877 123.546 7 7 336
1905143N17129 1905 19 WP MM NOT_NAMED 1905-05-24 16:00:00 NR 22.8000 123.500 main 217 204 __________O___ -1 22.8000 123.500 7 7 343
1905143N17129 1905 19 WP MM NOT_NAMED 1905-05-24 18:00:00 NR 23.0378 123.421 main 204 186 __________P___ -1 23.0378 123.421 7 8 346
1905143N17129 1905 19 WP MM NOT_NAMED 1905-05-24 21:00:00 NR 23.4231 123.332 main 186 162 __________P___ -1 23.4231 123.332 7 8 350
1905143N17129 1905 19 WP MM NOT_NAMED 1905-05-25 00:00:00 NR 23.8331 123.267 main 162 133 __________P___ -1 23.8331 123.267 7 8 353
1905143N17129 1905 19 WP MM NOT_NAMED 1905-05-25 03:00:00 NR 24.2573 123.216 main 133 131 __________P___ -1 24.2573 123.216 7 9 355
1905143N17129 1905 19 WP MM NOT_NAMED 1905-05-25 04:00:00 NR 24.4000 123.200 main 131 __________O___ -1 24.4000 123.200 7 9 0

デジタル台風データ・検索

IBTrACS Databaseについて

本データベースは、米国NOAAが公開する1842年以降の世界の熱帯低気圧のベストトラックデータアーカイブInternational Best Track Archive for Climate Stewardship (IBTrACS)を、ウェブで閲覧しやすい形式に変換したものです。

最終更新日:2021-10-25